Time;durP1;ratioP1;P1;durP2;ratioP2;P2;SDS_P1;SDS_P2;PMS_P1;PMS_P2;Temp;Humidity;BMP_temperature;BMP_pressure;BME280_temperature;BME280_humidity;BME280_pressure;Samples;Min_cycle;Max_cycle;Signal;HPM_P1;HPM_P2
2023/01/01 00:01:53;;;;;;;12.23;7.37;;;;;;;14.75;100.00;100222.66;5040213;57;1142756;-69
2023/01/01 00:06:59;;;;;;;10.90;6.97;;;;;;;14.77;100.00;100230.49;5007368;57;1143316;-71
2023/01/01 00:12:05;;;;;;;12.30;7.77;;;;;;;14.78;100.00;100233.50;4958997;58;1143200;-71
2023/01/01 00:17:12;;;;;;;9.73;5.90;;;;;;;14.79;100.00;100243.16;4959206;58;1142912;-72
2023/01/01 00:22:18;;;;;;;9.43;4.95;;;;;;;14.77;100.00;100225.17;4993692;57;1140863;-73
2023/01/01 00:27:23;;;;;;;8.23;5.20;;;;;;;14.76;100.00;100238.13;5076624;56;1140916;-72
2023/01/01 00:32:29;;;;;;;11.97;5.43;;;;;;;14.76;100.00;100234.14;5115498;56;1140810;-68
2023/01/01 00:37:35;;;;;;;8.67;4.60;;;;;;;14.77;100.00;100235.81;5101793;56;1143116;-73
2023/01/01 00:42:41;;;;;;;5.23;3.47;;;;;;;14.74;100.00;100240.95;5093978;56;1140891;-70
2023/01/01 00:47:47;;;;;;;6.87;4.10;;;;;;;14.74;100.00;100246.77;5102896;56;1140820;-70
2023/01/01 00:52:53;;;;;;;5.37;3.70;;;;;;;14.75;100.00;100263.08;5101851;56;1140884;-72
2023/01/01 00:57:59;;;;;;;6.87;3.70;;;;;;;14.72;100.00;100256.72;5122291;56;1140881;-72
2023/01/01 01:03:05;;;;;;;6.97;3.00;;;;;;;14.70;100.00;100258.20;5110160;56;1149552;-67
2023/01/01 01:08:11;;;;;;;6.50;3.67;;;;;;;14.70;100.00;100240.90;5037892;57;1140820;-69
2023/01/01 01:13:17;;;;;;;6.62;3.37;;;;;;;14.67;100.00;100253.67;5057543;57;1141041;-69
2023/01/01 01:18:23;;;;;;;8.10;3.10;;;;;;;14.65;100.00;100253.85;5037818;57;1140833;-72
2023/01/01 01:23:28;;;;;;;4.87;3.10;;;;;;;14.64;100.00;100266.81;5072861;56;1141030;-71
2023/01/01 01:28:36;;;;;;;6.57;2.63;;;;;;;14.60;100.00;100260.60;5094975;56;1141018;-72
2023/01/01 01:33:44;;;;;;;4.53;2.87;;;;;;;14.61;100.00;100268.94;5090606;56;1140825;-71
2023/01/01 01:38:50;;;;;;;3.93;2.87;;;;;;;14.57;100.00;100272.88;5101645;56;1140947;-71
2023/01/01 01:44:03;;;;;;;3.33;3.00;;;;;;;14.57;100.00;100273.72;5101633;56;1140819;-72
2023/01/01 01:49:20;;;;;;;3.60;2.58;;;;;;;14.56;100.00;100281.84;5058296;56;1140825;-71
2023/01/01 01:54:28;;;;;;;8.67;3.00;;;;;;;14.51;100.00;100285.47;5037025;57;1140947;-70
2023/01/01 01:59:39;;;;;;;8.70;3.17;;;;;;;14.45;100.00;100288.22;5036918;56;1140946;-73
2023/01/01 02:04:45;;;;;;;3.67;2.40;;;;;;;14.43;100.00;100292.36;5064427;56;1140951;-72
2023/01/01 02:09:51;;;;;;;5.87;3.00;;;;;;;14.41;100.00;100298.32;5121718;56;1140784;-73
2023/01/01 02:14:57;;;;;;;5.03;2.83;;;;;;;14.40;100.00;100301.13;5101719;56;1140920;-70
2023/01/01 02:20:23;;;;;;;3.15;2.72;;;;;;;14.37;100.00;100295.57;5099920;56;1140810;-73
2023/01/01 02:26:20;;;;;;;3.00;2.70;;;;;;;14.34;100.00;100303.88;5134839;56;1140937;-72
2023/01/01 02:31:33;;;;;;;7.57;3.27;;;;;;;14.30;100.00;100301.66;5084626;56;1141123;-70
2023/01/01 02:36:44;;;;;;;3.70;2.67;;;;;;;14.28;100.00;100301.80;4961917;58;1140913;-69
2023/01/01 02:41:53;;;;;;;2.60;2.40;;;;;;;14.30;100.00;100306.97;4962703;58;1147720;-71
2023/01/01 02:47:10;;;;;;;5.23;3.17;;;;;;;14.28;100.00;100297.80;5028790;57;1140928;-69
2023/01/01 02:52:41;;;;;;;8.15;2.67;;;;;;;14.30;100.00;100301.66;5039292;56;1140767;-74
2023/01/01 03:00:17;;;;;;;5.00;3.20;;;;;;;14.36;100.00;100313.85;4954907;57;1140859;-70
2023/01/01 03:03:27;;;;;;;5.08;2.30;;;;;;;14.38;100.00;100305.23;4961979;57;1140821;-74
2023/01/01 03:09:04;;;;;;;4.25;2.87;;;;;;;14.39;100.00;100314.89;5057198;57;1141165;-71
2023/01/01 03:14:23;;;;;;;5.87;2.90;;;;;;;14.37;100.00;100314.69;5063348;57;1141031;-68
2023/01/01 03:19:34;;;;;;;3.80;2.67;;;;;;;14.31;100.00;100320.12;5040293;57;1140876;-69
2023/01/01 03:25:03;;;;;;;4.10;1.97;;;;;;;14.29;100.00;100326.09;5044634;56;1140845;-68
2023/01/01 03:30:11;;;;;;;7.33;3.10;;;;;;;14.25;100.00;100317.21;5045158;56;1140981;-73
2023/01/01 03:35:20;;;;;;;8.55;2.90;;;;;;;14.22;100.00;100318.34;5075309;56;1140748;-72
2023/01/01 03:40:28;;;;;;;3.27;2.97;;;;;;;14.22;100.00;100312.18;5044639;57;1140894;-71
2023/01/01 03:45:41;;;;;;;5.50;2.93;;;;;;;14.18;100.00;100321.45;5022354;57;1140785;-73
2023/01/01 03:51:06;;;;;;;2.30;2.10;;;;;;;14.18;100.00;100321.45;5006017;57;1140898;-72
2023/01/01 03:56:44;;;;;;;5.62;2.72;;;;;;;14.17;100.00;100323.77;5063880;57;1140954;-73
2023/01/01 04:01:58;;;;;;;5.53;2.73;;;;;;;14.21;99.49;100321.98;5044745;57;1140769;-69
2023/01/01 04:07:06;;;;;;;2.80;2.42;;;;;;;14.18;98.94;100330.77;4963645;57;1138776;-71
2023/01/01 04:12:12;;;;;;;7.55;2.62;;;;;;;14.16;98.13;100342.88;4967663;58;1138811;-70
2023/01/01 04:17:18;;;;;;;5.15;2.37;;;;;;;14.16;98.13;100342.88;4963181;58;1138684;-67
2023/01/01 04:22:27;;;;;;;8.43;3.80;;;;;;;14.12;98.92;100342.81;4998407;56;1138917;-70
2023/01/01 04:27:34;;;;;;;3.62;2.12;;;;;;;14.08;98.83;100346.25;5142886;56;1138996;-70
2023/01/01 04:32:41;;;;;;;4.50;2.57;;;;;;;14.03;98.26;100349.02;5107633;56;1138941;-71
2023/01/01 04:37:47;;;;;;;8.17;2.60;;;;;;;14.00;98.22;100358.61;5042476;57;1138886;-69
2023/01/01 04:42:55;;;;;;;6.13;2.70;;;;;;;13.95;98.81;100359.03;5043041;57;1139131;-70
2023/01/01 04:48:07;;;;;;;6.53;2.93;;;;;;;13.91;98.42;100357.64;5062738;56;1138732;-67
2023/01/01 04:53:13;;;;;;;4.35;3.33;;;;;;;13.88;98.51;100354.45;5043340;57;1138730;-73
2023/01/01 04:58:19;;;;;;;8.10;2.40;;;;;;;13.86;98.65;100359.91;5043443;57;1138817;-70
2023/01/01 05:03:26;;;;;;;3.83;2.70;;;;;;;13.87;98.22;100362.09;5063062;57;1138775;-71
2023/01/01 05:08:33;;;;;;;8.07;2.77;;;;;;;13.88;98.35;100355.79;5043622;56;1138584;-70
2023/01/01 05:13:42;;;;;;;8.73;3.60;;;;;;;13.90;97.81;100350.64;5043628;56;1139255;-72
2023/01/01 05:18:49;;;;;;;10.77;3.23;;;;;;;13.92;97.48;100363.30;5043977;56;1138647;-65
2023/01/01 05:23:58;;;;;;;10.67;3.07;;;;;;;14.00;95.97;100390.52;5106156;56;1141074;-69
2023/01/01 05:29:05;;;;;;;5.10;3.17;;;;;;;14.01;95.77;100384.22;5127877;56;1140742;-68
2023/01/01 05:34:11;;;;;;;12.00;3.43;;;;;;;14.05;95.91;100396.25;5081468;56;1138856;-67
2023/01/01 05:39:17;;;;;;;6.17;3.60;;;;;;;14.03;95.65;100391.57;5058131;57;1140959;-70
2023/01/01 05:44:24;;;;;;;8.55;3.92;;;;;;;14.02;95.91;100399.20;5043769;57;1138976;-65
2023/01/01 05:49:30;;;;;;;9.33;4.40;;;;;;;14.01;95.67;100403.68;5045419;57;1138836;-70
2023/01/01 05:54:36;;;;;;;8.45;4.00;;;;;;;14.02;95.29;100419.14;5045212;57;1138912;-67
2023/01/01 05:59:41;;;;;;;3.70;3.23;;;;;;;14.04;95.64;100419.84;5065240;57;1138781;-73
2023/01/01 06:04:47;;;;;;;6.97;4.67;;;;;;;14.01;95.39;100426.77;5044773;57;1138977;-68
2023/01/01 06:09:53;;;;;;;8.07;4.67;;;;;;;14.02;96.28;100427.96;5045375;57;1138838;-68
2023/01/01 06:14:59;;;;;;;7.37;4.23;;;;;;;13.97;96.17;100439.50;5064994;57;1138767;-72
2023/01/01 06:20:05;;;;;;;10.00;4.80;;;;;;;13.96;96.43;100436.98;5045296;57;1138572;-71
2023/01/01 06:25:11;;;;;;;10.17;4.47;;;;;;;13.89;96.71;100445.20;5044913;57;1140869;-71
2023/01/01 06:30:17;;;;;;;8.70;4.25;;;;;;;13.88;96.74;100451.00;5065249;57;1140966;-71
2023/01/01 06:35:23;;;;;;;11.10;4.55;;;;;;;13.89;96.74;100459.82;4980127;57;1139000;-69
2023/01/01 06:40:30;;;;;;;8.20;4.10;;;;;;;13.91;96.19;100464.48;5083432;56;1140832;-72
2023/01/01 06:45:36;;;;;;;6.27;4.03;;;;;;;13.92;96.18;100470.98;5103933;56;1138727;-71
2023/01/01 06:50:42;;;;;;;10.87;4.23;;;;;;;13.94;95.79;100486.31;4980310;58;1138798;-69
2023/01/01 06:55:51;;;;;;;12.13;4.63;;;;;;;13.95;95.44;100498.63;5042207;57;1140868;-71
2023/01/01 07:01:10;;;;;;;9.80;4.10;;;;;;;13.97;95.16;100504.66;5042225;57;1140737;-70
2023/01/01 07:06:16;;;;;;;7.42;3.35;;;;;;;13.99;95.28;100502.69;5057664;56;1138918;-70
2023/01/01 07:11:22;;;;;;;9.53;5.05;;;;;;;13.99;94.58;100519.14;5042934;57;1138928;-71
2023/01/01 07:16:28;;;;;;;7.50;4.33;;;;;;;13.98;95.24;100527.60;5043113;57;1138926;-69
2023/01/01 07:21:53;;;;;;;7.90;3.42;;;;;;;13.98;95.06;100532.08;5062365;56;1138701;-70
2023/01/01 07:26:58;;;;;;;7.33;3.67;;;;;;;13.99;94.51;100535.09;5147784;56;1138762;-67
2023/01/01 07:32:04;;;;;;;6.63;2.63;;;;;;;14.01;93.50;100532.65;5116802;56;1138731;-72
2023/01/01 07:37:10;;;;;;;11.13;3.17;;;;;;;14.09;92.94;100546.06;5110305;56;1138690;-71
2023/01/01 07:42:16;;;;;;;12.07;3.37;;;;;;;14.18;92.23;100552.37;5147551;56;1140860;-71
2023/01/01 07:47:25;;;;;;;4.92;3.02;;;;;;;14.25;92.04;100563.27;5073501;56;1140785;-69
2023/01/01 07:52:31;;;;;;;9.50;3.33;;;;;;;14.29;91.90;100548.72;5042861;57;1138670;-70
2023/01/01 07:57:37;;;;;;;11.83;3.27;;;;;;;14.33;90.84;100549.63;5042497;57;1138889;-69
2023/01/01 08:02:43;;;;;;;11.37;2.73;;;;;;;14.41;90.28;100555.09;5062441;57;1140738;-72
2023/01/01 08:07:51;;;;;;;5.40;2.97;;;;;;;14.48;89.62;100554.05;5042947;57;1140739;-69
2023/01/01 08:13:06;;;;;;;11.87;2.70;;;;;;;14.56;89.61;100559.48;5064693;56;1138863;-66
2023/01/01 08:18:12;;;;;;;3.80;2.87;;;;;;;14.60;88.76;100550.72;5048907;56;1140845;-70
2023/01/01 08:23:18;;;;;;;9.13;3.45;;;;;;;14.64;88.47;100539.65;5101974;56;1138847;-73
2023/01/01 08:28:25;;;;;;;13.80;3.10;;;;;;;14.72;88.20;100545.08;5065448;56;1138965;-69
2023/01/01 08:33:31;;;;;;;6.83;2.73;;;;;;;14.74;88.26;100548.44;5107850;56;1140940;-72
2023/01/01 08:38:36;;;;;;;8.90;3.30;;;;;;;14.75;87.51;100560.77;5043573;57;1138592;-71
2023/01/01 08:43:42;;;;;;;12.60;3.60;;;;;;;14.80;87.12;100552.84;5040665;57;1138695;-68
2023/01/01 08:48:48;;;;;;;10.53;2.77;;;;;;;14.82;86.92;100560.20;5059544;57;1140919;-73
2023/01/01 08:53:54;;;;;;;7.03;2.50;;;;;;;14.81;87.29;100575.34;5045031;57;1140825;-69
2023/01/01 08:59:01;;;;;;;6.93;2.53;;;;;;;14.82;87.15;100587.64;5045345;57;1138646;-72
2023/01/01 09:04:11;;;;;;;2.58;2.10;;;;;;;14.78;87.08;100588.44;5065055;57;1138626;-69
2023/01/01 09:09:16;;;;;;;9.30;3.40;;;;;;;14.80;86.75;100574.98;5045747;57;1138838;-69
2023/01/01 09:14:23;;;;;;;10.10;3.33;;;;;;;14.82;86.75;100562.34;5045481;56;1138865;-73
2023/01/01 09:19:29;;;;;;;7.10;2.83;;;;;;;14.86;87.01;100581.53;5049219;57;1140931;-72
2023/01/01 09:24:35;;;;;;;7.33;3.80;;;;;;;14.89;86.67;100580.77;5007927;56;1138770;-72
2023/01/01 09:29:40;;;;;;;9.40;3.03;;;;;;;14.92;86.96;100583.63;5026371;57;1138943;-69
2023/01/01 09:34:46;;;;;;;4.53;2.23;;;;;;;14.94;85.94;100572.34;5052478;57;1139076;-72
2023/01/01 09:39:52;;;;;;;15.03;7.28;;;;;;;14.97;85.68;100574.20;5032101;57;1138878;-72
2023/01/01 09:45:23;;;;;;;8.17;3.50;;;;;;;15.03;86.18;100575.45;5037716;56;1140928;-71
2023/01/01 09:50:41;;;;;;;4.17;2.67;;;;;;;15.05;85.11;100588.14;5124517;56;1138732;-72
2023/01/01 09:56:03;;;;;;;7.20;3.73;;;;;;;15.09;84.54;100590.38;5130385;56;1138625;-69
2023/01/01 10:01:49;;;;;;;6.90;3.03;;;;;;;15.13;84.64;100595.73;5059896;56;1138830;-71
2023/01/01 10:07:24;;;;;;;13.60;4.63;;;;;;;15.17;84.57;100595.44;5117592;56;1138732;-70
2023/01/01 10:13:03;;;;;;;24.65;11.30;;;;;;;15.20;83.97;100597.82;5150088;56;1141051;-71
2023/01/01 10:18:16;;;;;;;10.27;4.33;;;;;;;15.22;84.01;100602.02;5129548;56;1142990;-70
2023/01/01 10:23:26;;;;;;;6.93;3.20;;;;;;;15.21;83.99;100608.83;5102882;56;1140955;-66
2023/01/01 10:28:55;;;;;;;14.60;3.50;;;;;;;15.23;83.91;100605.53;5094372;56;1138778;-71
2023/01/01 10:34:08;;;;;;;12.43;3.47;;;;;;;15.25;83.79;100605.73;5047164;56;1140814;-66
2023/01/01 10:39:17;;;;;;;7.63;2.93;;;;;;;15.25;83.45;100592.41;5054489;56;1140730;-71
2023/01/01 10:44:28;;;;;;;11.53;4.33;;;;;;;15.28;83.36;100608.57;5081520;56;1139008;-71
2023/01/01 10:49:33;;;;;;;9.27;3.43;;;;;;;15.28;83.71;100612.56;5047775;56;1140806;-73
2023/01/01 10:54:44;;;;;;;11.50;3.63;;;;;;;15.26;84.35;100600.75;5057487;56;1138828;-69
2023/01/01 10:59:49;;;;;;;9.28;3.27;;;;;;;15.25;84.18;100596.90;5048197;56;1140953;-73
2023/01/01 11:05:21;;;;;;;9.00;3.80;;;;;;;15.26;83.66;100590.59;5068021;56;1138800;-69
2023/01/01 11:10:33;;;;;;;5.80;3.35;;;;;;;15.26;84.28;100622.06;5054282;56;1138822;-73
2023/01/01 11:15:41;;;;;;;8.57;4.47;;;;;;;15.20;84.45;100610.65;5041099;57;1138688;-71
2023/01/01 11:20:52;;;;;;;14.33;3.33;;;;;;;15.24;84.12;100607.20;5043641;57;1138771;-70
2023/01/01 11:26:13;;;;;;;14.30;5.00;;;;;;;15.25;84.37;100604.40;5138799;56;1140934;-69
2023/01/01 11:31:21;;;;;;;6.95;2.85;;;;;;;15.29;85.09;100606.25;5127511;56;1140820;-69
2023/01/01 11:36:36;;;;;;;8.23;2.90;;;;;;;15.33;84.28;100619.14;5042658;57;1138785;-72
2023/01/01 11:41:48;;;;;;;7.87;3.83;;;;;;;15.37;84.35;100607.22;5041849;57;1138806;-70
2023/01/01 11:46:54;;;;;;;6.00;3.07;;;;;;;15.41;85.08;100616.59;5065085;56;1138713;-72
2023/01/01 11:52:00;;;;;;;4.57;2.43;;;;;;;15.42;84.59;100621.44;5101480;56;1138725;-75
2023/01/01 11:57:18;;;;;;;6.70;2.83;;;;;;;15.42;84.40;100612.95;5101492;56;1138601;-68
2023/01/01 12:02:34;;;;;;;9.57;3.43;;;;;;;15.44;84.79;100626.94;5099136;56;1139018;-69
2023/01/01 12:07:43;;;;;;;7.00;2.83;;;;;;;15.48;85.18;100637.66;5034390;56;1138927;-74
2023/01/01 12:13:06;;;;;;;7.75;3.47;;;;;;;15.51;84.83;100647.20;5112429;56;1138854;-69
2023/01/01 12:18:23;;;;;;;10.63;2.75;;;;;;;15.54;85.31;100648.23;5078759;56;1138818;-72
2023/01/01 12:23:30;;;;;;;5.33;2.65;;;;;;;15.57;84.98;100658.64;5058489;56;1140925;-73
2023/01/01 12:29:09;;;;;;;6.77;3.10;;;;;;;15.60;84.99;100673.48;5107458;56;1138647;-71
2023/01/01 12:34:20;;;;;;;6.05;3.47;;;;;;;15.62;84.77;100661.69;5066532;56;1138724;-70
2023/01/01 12:39:55;;;;;;;7.60;2.95;;;;;;;15.64;85.20;100656.21;5105153;56;1138995;-70
2023/01/01 12:45:34;;;;;;;6.40;3.03;;;;;;;15.60;85.48;100660.99;5091767;56;1139002;-68
2023/01/01 12:51:18;;;;;;;7.43;3.13;;;;;;;15.56;85.14;100661.45;5040319;57;1138865;-73
2023/01/01 12:56:35;;;;;;;7.47;4.10;;;;;;;15.54;86.50;100655.39;5040304;57;1138711;-67
2023/01/01 13:01:41;;;;;;;8.83;3.13;;;;;;;15.48;86.81;100655.48;5043599;57;1139048;-72
2023/01/01 13:07:02;;;;;;;8.87;3.40;;;;;;;15.45;86.72;100651.77;5063314;56;1138680;-72
2023/01/01 13:12:17;;;;;;;11.93;4.07;;;;;;;15.38;87.39;100662.69;5040268;56;1138646;-69
2023/01/01 13:17:29;;;;;;;8.30;3.77;;;;;;;15.34;87.85;100661.30;5041686;57;1140833;-71
2023/01/01 13:22:40;;;;;;;7.07;3.40;;;;;;;15.31;88.34;100669.57;5069227;56;1138925;-72
2023/01/01 13:28:00;;;;;;;;;;;;;;;15.27;88.57;100667.72;5143858;56;1138992;-69
2023/01/01 13:33:35;;;;;;;8.77;4.47;;;;;;;15.24;88.74;100693.31;5118847;56;976266;-70
2023/01/01 13:38:56;;;;;;;7.53;4.77;;;;;;;15.21;88.89;100709.58;5077210;56;1136912;-69
2023/01/01 13:44:07;;;;;;;17.57;9.27;;;;;;;15.20;89.43;100703.06;5113185;55;1138966;-71
2023/01/01 13:49:29;;;;;;;9.67;3.93;;;;;;;15.19;89.62;100709.38;5087630;56;1140891;-69
2023/01/01 13:55:18;;;;;;;6.80;4.10;;;;;;;15.15;90.02;100720.80;5098789;56;1138686;-71
2023/01/01 14:00:31;;;;;;;10.37;4.33;;;;;;;15.11;90.13;100737.59;5049505;56;1138810;-71
2023/01/01 14:05:42;;;;;;;5.10;4.30;;;;;;;15.08;90.53;100733.03;5082151;56;1140687;-71
2023/01/01 14:10:52;;;;;;;7.85;3.55;;;;;;;15.03;90.72;100727.28;5107027;56;1138945;-71
2023/01/01 14:16:01;;;;;;;6.43;3.60;;;;;;;14.98;90.77;100746.34;5111275;56;1138762;-68
2023/01/01 14:21:20;;;;;;;6.90;4.07;;;;;;;14.93;91.31;100762.41;5070540;56;1138721;-72
2023/01/01 14:26:28;;;;;;;7.57;4.47;;;;;;;14.91;91.50;100764.38;5069611;56;1138703;-70
2023/01/01 14:31:45;;;;;;;6.43;3.93;;;;;;;14.88;91.68;100765.98;5060183;56;1138961;-73
2023/01/01 14:36:54;;;;;;;5.63;3.67;;;;;;;14.84;91.69;100778.73;5116442;56;1138845;-70
2023/01/01 14:42:11;;;;;;;15.90;9.50;;;;;;;14.78;92.08;100772.16;5100698;56;1138723;-68
2023/01/01 14:47:30;;;;;;;14.43;4.85;;;;;;;14.73;92.30;100775.72;5077963;56;1141004;-69
2023/01/01 14:52:36;;;;;;;14.80;6.07;;;;;;;14.68;92.64;100793.08;4865719;58;1141011;-67
2023/01/01 14:57:46;;;;;;;6.87;4.22;;;;;;;14.63;92.88;100812.64;4974859;57;1140990;-71
2023/01/01 15:02:52;;;;;;;5.57;4.30;;;;;;;14.56;93.12;100820.32;4960887;57;1138844;-72
2023/01/01 15:08:01;;;;;;;15.50;6.20;;;;;;;14.51;93.30;100835.04;5036674;56;1138858;-66
2023/01/01 15:13:08;;;;;;;10.60;4.47;;;;;;;14.47;93.54;100826.48;5055668;56;1140786;-70
2023/01/01 15:18:36;;;;;;;9.17;5.00;;;;;;;14.43;93.69;100833.05;5037081;57;1140853;-72
2023/01/01 15:23:55;;;;;;;16.33;8.90;;;;;;;14.37;93.96;100844.19;5055171;56;1138903;-69
2023/01/01 15:29:02;;;;;;;9.17;4.77;;;;;;;14.29;94.24;100846.70;5110370;56;1140671;-68
2023/01/01 15:34:27;;;;;;;9.83;5.80;;;;;;;14.22;94.49;100856.17;5208395;56;1139017;-70
2023/01/01 15:39:33;;;;;;;8.30;5.13;;;;;;;14.13;94.96;100876.45;5071708;56;1138928;-69
2023/01/01 15:44:40;;;;;;;10.00;5.33;;;;;;;14.06;95.27;100880.61;5065972;56;1138961;-71
2023/01/01 15:49:46;;;;;;;12.65;6.17;;;;;;;14.00;95.50;100888.64;5056204;56;1140820;-69
2023/01/01 15:54:52;;;;;;;13.43;5.80;;;;;;;13.95;95.75;100897.98;5065351;56;1140797;-69
2023/01/01 15:59:58;;;;;;;8.30;4.70;;;;;;;13.88;95.88;100892.36;5068357;56;1140772;-72
2023/01/01 16:05:05;;;;;;;12.60;5.07;;;;;;;13.87;96.06;100888.02;5070878;56;1138695;-73
2023/01/01 16:10:18;;;;;;;10.00;5.43;;;;;;;13.84;96.12;100892.74;5113588;56;1140819;-69
2023/01/01 16:15:23;;;;;;;;;;;;;;;13.80;96.32;100893.97;5074618;56;1140824;-70
2023/01/01 16:20:29;;;;;;;12.77;6.40;;;;;;;13.73;96.52;100895.00;5092185;56;976076;-70
2023/01/01 16:25:34;;;;;;;18.17;8.33;;;;;;;13.66;96.95;100905.77;5089714;56;1138935;-68
2023/01/01 16:30:42;;;;;;;14.53;6.77;;;;;;;13.62;97.04;100905.67;5054429;56;1140785;-68
2023/01/01 16:35:48;;;;;;;15.50;8.00;;;;;;;13.55;97.07;100906.69;5027213;57;1140835;-70
2023/01/01 16:40:54;;;;;;;16.10;7.40;;;;;;;13.49;97.33;100908.52;5047660;56;1140883;-70
2023/01/01 16:46:00;;;;;;;17.00;10.00;;;;;;;13.42;97.91;100909.17;4964361;57;1140818;-70
2023/01/01 16:51:07;;;;;;;20.10;8.50;;;;;;;13.33;98.22;100910.77;4964259;57;1142873;-72
2023/01/01 16:56:13;;;;;;;27.10;9.20;;;;;;;13.27;98.76;100929.88;4998071;56;1140807;-72
2023/01/01 17:01:20;;;;;;;14.35;7.65;;;;;;;13.19;98.95;100929.16;5025779;56;1141200;-72
2023/01/01 17:06:27;;;;;;;15.38;7.75;;;;;;;13.16;99.19;100933.39;5007684;57;1140908;-70
2023/01/01 17:11:32;;;;;;;22.30;7.15;;;;;;;13.13;99.45;100928.81;5021742;56;1141090;-72
2023/01/01 17:16:38;;;;;;;19.90;11.75;;;;;;;13.08;99.58;100937.63;5027295;56;1141021;-69
2023/01/01 17:21:46;;;;;;;11.17;6.73;;;;;;;13.01;99.99;100930.14;5018115;56;1142941;-71
2023/01/01 17:26:54;;;;;;;16.97;8.10;;;;;;;13.01;100.00;100939.44;5049071;56;1140948;-71
2023/01/01 17:32:00;;;;;;;16.57;8.77;;;;;;;12.98;100.00;100948.16;5048947;56;1142934;-69
2023/01/01 17:37:06;;;;;;;21.10;10.37;;;;;;;12.93;100.00;100965.78;5048552;56;1142933;-70
2023/01/01 17:42:12;;;;;;;20.53;9.23;;;;;;;12.88;100.00;100969.76;5067926;56;1145315;-73
2023/01/01 17:47:17;;;;;;;16.43;8.07;;;;;;;12.87;100.00;100978.69;5041682;56;1142994;-72
2023/01/01 17:52:25;;;;;;;22.90;10.23;;;;;;;12.86;100.00;100979.66;5050015;56;1143066;-73
2023/01/01 17:57:30;;;;;;;26.53;13.20;;;;;;;12.84;100.00;100981.09;5066321;56;1144898;-70
2023/01/01 18:02:36;;;;;;;23.15;9.90;;;;;;;12.79;100.00;100990.41;5121855;56;1145155;-69
2023/01/01 18:07:44;;;;;;;18.95;9.60;;;;;;;12.70;100.00;100989.31;5065583;56;1143129;-69
2023/01/01 18:12:49;;;;;;;19.60;9.85;;;;;;;12.65;100.00;101004.30;4976763;57;1143015;-66
2023/01/01 18:17:55;;;;;;;17.10;8.77;;;;;;;12.58;100.00;101012.84;5022591;57;1142957;-71
2023/01/01 18:23:01;;;;;;;19.57;8.27;;;;;;;12.50;100.00;101005.97;4978648;57;1143143;-70
2023/01/01 18:28:09;;;;;;;21.50;11.87;;;;;;;12.46;100.00;101009.82;4974763;57;1143021;-70
2023/01/01 18:33:14;;;;;;;44.73;23.40;;;;;;;12.44;100.00;101018.38;5016986;56;1144918;-68
2023/01/01 18:38:20;;;;;;;89.23;48.47;;;;;;;12.40;100.00;101022.22;4988554;57;1144960;-68
2023/01/01 18:43:26;;;;;;;28.37;18.23;;;;;;;12.39;100.00;101029.81;4968225;57;1144948;-71
2023/01/01 18:48:32;;;;;;;27.40;11.78;;;;;;;12.41;100.00;101028.73;4998530;57;1152426;-71
2023/01/01 18:53:38;;;;;;;29.20;13.15;;;;;;;12.39;100.00;101033.31;4983815;56;1145124;-69
2023/01/01 18:58:45;;;;;;;29.03;12.97;;;;;;;12.36;100.00;101036.22;4967558;57;1145097;-70
2023/01/01 19:03:55;;;;;;;87.37;51.02;;;;;;;12.34;100.00;101030.19;5040725;56;1145546;-71
2023/01/01 19:09:08;;;;;;;30.80;13.70;;;;;;;12.37;100.00;101035.74;5084771;56;1145001;-69
2023/01/01 19:14:21;;;;;;;29.97;10.70;;;;;;;12.36;100.00;101045.50;5051407;56;1144942;-71
2023/01/01 19:19:33;;;;;;;19.05;9.70;;;;;;;12.33;100.00;101053.22;5073389;56;1144952;-71
2023/01/01 19:24:39;;;;;;;21.40;9.50;;;;;;;12.33;100.00;101046.58;5036264;56;1143049;-68
2023/01/01 19:29:47;;;;;;;20.97;11.85;;;;;;;12.35;100.00;101038.52;5071905;56;1142982;-69
2023/01/01 19:34:54;;;;;;;20.93;9.73;;;;;;;12.32;100.00;101038.26;5069518;56;1145195;-69
2023/01/01 19:40:01;;;;;;;16.97;11.15;;;;;;;12.32;100.00;101026.33;5047269;56;1142948;-71
2023/01/01 19:45:08;;;;;;;22.20;10.50;;;;;;;12.31;100.00;101035.24;5061015;56;1145044;-71
2023/01/01 19:50:14;;;;;;;21.13;10.33;;;;;;;12.30;100.00;101034.88;5057125;56;1145001;-72
2023/01/01 19:55:20;;;;;;;21.00;8.65;;;;;;;12.31;100.00;101045.84;5070551;56;1144921;-67
2023/01/01 20:00:26;;;;;;;19.63;8.80;;;;;;;12.33;100.00;101049.23;5064462;56;1142957;-72
2023/01/01 20:05:34;;;;;;;23.03;8.53;;;;;;;12.36;100.00;101049.48;5013184;56;1142955;-71
2023/01/01 20:10:40;;;;;;;17.30;7.97;;;;;;;12.39;100.00;101060.31;5045070;56;1142983;-69
2023/01/01 20:15:46;;;;;;;18.95;9.35;;;;;;;12.42;100.00;101055.62;5046359;56;1143195;-69
2023/01/01 20:26:16;;;;;;;12.65;6.80;;;;;;;12.40;100.00;101055.38;5022774;56;1142991;-72
2023/01/01 20:31:22;;;;;;;17.33;8.20;;;;;;;12.43;100.00;101069.26;4934511;57;1142953;-68
2023/01/01 20:41:51;;;;;;;17.20;6.08;;;;;;;12.41;100.00;101058.39;4946851;58;1142986;-70
2023/01/01 20:46:58;;;;;;;15.53;7.77;;;;;;;12.39;100.00;101057.18;4880299;58;1143065;-71
2023/01/01 20:52:04;;;;;;;17.07;9.03;;;;;;;12.43;100.00;101053.82;4902859;59;1142928;-70
2023/01/01 20:57:10;;;;;;;22.67;7.90;;;;;;;12.45;100.00;101051.90;5044944;56;1142889;-71
2023/01/01 21:02:16;;;;;;;13.77;7.77;;;;;;;12.44;100.00;101062.99;5033747;56;1143013;-73
2023/01/01 21:07:22;;;;;;;18.97;7.90;;;;;;;12.41;100.00;101055.27;5044859;56;1143133;-71
2023/01/01 21:12:29;;;;;;;16.20;8.00;;;;;;;12.39;100.00;101066.47;5018788;56;1142977;-72
2023/01/01 21:17:34;;;;;;;14.80;8.33;;;;;;;12.39;100.00;101066.95;5087933;56;1142924;-68
2023/01/01 21:22:42;;;;;;;19.57;8.88;;;;;;;12.37;100.00;101080.84;5128653;56;1142988;-73
2023/01/01 21:27:48;;;;;;;22.45;8.15;;;;;;;12.32;100.00;101074.55;5150328;56;1143045;-70
2023/01/01 21:32:53;;;;;;;20.53;9.00;;;;;;;12.33;100.00;101080.22;5082178;56;1143015;-70
2023/01/01 21:38:01;;;;;;;17.00;8.17;;;;;;;12.36;100.00;101076.02;5017075;56;1142814;-71
2023/01/01 21:43:28;;;;;;;27.87;8.70;;;;;;;12.36;100.00;101084.45;5059760;56;1143020;-69
2023/01/01 21:48:44;;;;;;;28.50;10.63;;;;;;;12.34;100.00;101083.23;5001083;56;1145664;-69
2023/01/01 21:53:51;;;;;;;18.37;8.00;;;;;;;12.31;100.00;101084.31;4962614;57;1145184;-72
2023/01/01 21:59:26;;;;;;;20.73;10.10;;;;;;;12.31;100.00;101078.16;5004540;56;1142923;-72
2023/01/01 22:04:47;;;;;;;60.03;27.50;;;;;;;12.36;100.00;101073.36;5047653;56;1145129;-73
2023/01/01 22:09:56;;;;;;;53.80;23.77;;;;;;;12.40;100.00;101065.98;5042856;57;1145139;-68
2023/01/01 22:15:27;;;;;;;23.17;12.13;;;;;;;12.37;100.00;101062.27;5042417;57;1144966;-69
2023/01/01 22:20:37;;;;;;;29.27;11.70;;;;;;;12.37;100.00;101062.27;5042727;56;1152835;-72
2023/01/01 22:25:42;;;;;;;25.37;9.37;;;;;;;12.30;100.00;101058.75;5042518;57;1145223;-70
2023/01/01 22:30:55;;;;;;;24.63;9.50;;;;;;;12.31;100.00;101070.20;5043268;55;1143001;-72
2023/01/01 22:36:01;;;;;;;24.97;10.00;;;;;;;12.32;100.00;101064.78;5062262;57;1143023;-69
2023/01/01 22:41:08;;;;;;;20.30;10.03;;;;;;;12.31;100.00;101068.39;5042114;57;1145160;-70
2023/01/01 22:46:22;;;;;;;21.10;9.47;;;;;;;12.31;100.00;101070.20;5042275;57;1145051;-72
2023/01/01 22:51:34;;;;;;;22.05;10.08;;;;;;;12.29;100.00;101078.75;5062614;57;1143127;-69
2023/01/01 22:56:42;;;;;;;19.83;9.10;;;;;;;12.23;100.00;101078.72;5042324;56;1145012;-70
2023/01/01 23:01:48;;;;;;;17.90;9.35;;;;;;;12.19;100.00;101081.74;5058017;56;1143152;-70
2023/01/01 23:06:54;;;;;;;31.80;12.37;;;;;;;12.19;100.00;101078.61;5147261;56;1143005;-71
2023/01/01 23:12:00;;;;;;;28.27;14.13;;;;;;;12.17;100.00;101075.70;5126831;55;1145145;-69
2023/01/01 23:17:07;;;;;;;71.73;28.17;;;;;;;12.19;100.00;101063.18;5126553;56;1144954;-69
2023/01/01 23:22:14;;;;;;;55.90;28.60;;;;;;;12.22;100.00;101063.77;5146823;56;1145179;-72
2023/01/01 23:27:20;;;;;;;62.70;21.87;;;;;;;12.20;100.00;101068.38;5126655;56;1145087;-69